sensor_id;sensor_type;location;lat;lon;timestamp;P1;durP1;ratioP1;P2;durP2;ratioP2
6217;SDS011;3142;48.206;11.550;2024-03-08T00:02:10;17.20;;;11.50;;
6217;SDS011;3142;48.206;11.550;2024-03-08T00:04:37;19.43;;;12.27;;
6217;SDS011;3142;48.206;11.550;2024-03-08T00:07:04;16.90;;;11.03;;
6217;SDS011;3142;48.206;11.550;2024-03-08T00:09:30;15.73;;;10.77;;
6217;SDS011;3142;48.206;11.550;2024-03-08T00:11:56;16.73;;;10.40;;
6217;SDS011;3142;48.206;11.550;2024-03-08T00:14:24;18.53;;;10.93;;
6217;SDS011;3142;48.206;11.550;2024-03-08T00:16:51;16.07;;;10.57;;
6217;SDS011;3142;48.206;11.550;2024-03-08T00:19:17;14.80;;;10.77;;
6217;SDS011;3142;48.206;11.550;2024-03-08T00:21:44;15.47;;;10.73;;
6217;SDS011;3142;48.206;11.550;2024-03-08T00:24:11;16.73;;;11.10;;
6217;SDS011;3142;48.206;11.550;2024-03-08T00:26:37;17.30;;;10.93;;
6217;SDS011;3142;48.206;11.550;2024-03-08T00:29:04;19.03;;;11.70;;
6217;SDS011;3142;48.206;11.550;2024-03-08T00:31:34;15.47;;;10.67;;
6217;SDS011;3142;48.206;11.550;2024-03-08T00:34:00;15.10;;;10.30;;
6217;SDS011;3142;48.206;11.550;2024-03-08T00:36:27;18.20;;;11.60;;
6217;SDS011;3142;48.206;11.550;2024-03-08T00:38:55;16.63;;;11.90;;
6217;SDS011;3142;48.206;11.550;2024-03-08T00:41:21;15.43;;;10.53;;
6217;SDS011;3142;48.206;11.550;2024-03-08T00:43:48;18.10;;;12.23;;
6217;SDS011;3142;48.206;11.550;2024-03-08T00:46:14;15.30;;;10.60;;
6217;SDS011;3142;48.206;11.550;2024-03-08T00:48:42;16.67;;;10.63;;
6217;SDS011;3142;48.206;11.550;2024-03-08T00:51:09;16.37;;;11.50;;
6217;SDS011;3142;48.206;11.550;2024-03-08T00:53:36;16.30;;;10.50;;
6217;SDS011;3142;48.206;11.550;2024-03-08T00:56:02;16.50;;;11.40;;
6217;SDS011;3142;48.206;11.550;2024-03-08T00:58:29;18.80;;;12.00;;
6217;SDS011;3142;48.206;11.550;2024-03-08T01:00:55;18.33;;;11.73;;
6217;SDS011;3142;48.206;11.550;2024-03-08T01:03:22;17.53;;;11.27;;
6217;SDS011;3142;48.206;11.550;2024-03-08T01:05:50;17.13;;;10.87;;
6217;SDS011;3142;48.206;11.550;2024-03-08T01:08:16;15.40;;;10.90;;
6217;SDS011;3142;48.206;11.550;2024-03-08T01:10:43;17.40;;;11.57;;
6217;SDS011;3142;48.206;11.550;2024-03-08T01:13:09;16.00;;;11.77;;
6217;SDS011;3142;48.206;11.550;2024-03-08T01:15:36;18.53;;;11.97;;
6217;SDS011;3142;48.206;11.550;2024-03-08T01:18:02;16.10;;;10.63;;
6217;SDS011;3142;48.206;11.550;2024-03-08T01:20:30;16.77;;;11.03;;
6217;SDS011;3142;48.206;11.550;2024-03-08T01:22:58;19.20;;;11.23;;
6217;SDS011;3142;48.206;11.550;2024-03-08T01:25:24;15.97;;;10.87;;
6217;SDS011;3142;48.206;11.550;2024-03-08T01:27:50;16.60;;;11.17;;
6217;SDS011;3142;48.206;11.550;2024-03-08T01:30:18;15.70;;;10.53;;
6217;SDS011;3142;48.206;11.550;2024-03-08T01:32:45;20.00;;;12.17;;
6217;SDS011;3142;48.206;11.550;2024-03-08T01:35:11;15.90;;;11.17;;
6217;SDS011;3142;48.206;11.550;2024-03-08T01:37:38;16.10;;;11.43;;
6217;SDS011;3142;48.206;11.550;2024-03-08T01:40:06;17.93;;;12.00;;
6217;SDS011;3142;48.206;11.550;2024-03-08T01:42:34;17.30;;;12.47;;
6217;SDS011;3142;48.206;11.550;2024-03-08T01:45:02;17.73;;;11.50;;
6217;SDS011;3142;48.206;11.550;2024-03-08T01:47:30;19.37;;;11.73;;
6217;SDS011;3142;48.206;11.550;2024-03-08T01:49:57;19.80;;;12.40;;
6217;SDS011;3142;48.206;11.550;2024-03-08T01:52:24;18.50;;;11.40;;
6217;SDS011;3142;48.206;11.550;2024-03-08T01:54:51;16.40;;;11.03;;
6217;SDS011;3142;48.206;11.550;2024-03-08T01:57:19;18.33;;;12.03;;
6217;SDS011;3142;48.206;11.550;2024-03-08T01:59:46;19.17;;;11.93;;
6217;SDS011;3142;48.206;11.550;2024-03-08T02:02:13;16.50;;;11.30;;
6217;SDS011;3142;48.206;11.550;2024-03-08T02:04:44;18.73;;;12.20;;
6217;SDS011;3142;48.206;11.550;2024-03-08T02:07:11;19.70;;;12.47;;
6217;SDS011;3142;48.206;11.550;2024-03-08T02:09:38;17.47;;;11.70;;
6217;SDS011;3142;48.206;11.550;2024-03-08T02:12:05;20.73;;;12.73;;
6217;SDS011;3142;48.206;11.550;2024-03-08T02:14:34;16.47;;;12.17;;
6217;SDS011;3142;48.206;11.550;2024-03-08T02:17:01;18.70;;;12.73;;
6217;SDS011;3142;48.206;11.550;2024-03-08T02:19:29;19.73;;;12.23;;
6217;SDS011;3142;48.206;11.550;2024-03-08T02:21:59;20.70;;;12.07;;
6217;SDS011;3142;48.206;11.550;2024-03-08T02:24:29;19.73;;;12.60;;
6217;SDS011;3142;48.206;11.550;2024-03-08T02:26:55;19.00;;;12.23;;
6217;SDS011;3142;48.206;11.550;2024-03-08T02:29:22;18.57;;;12.43;;
6217;SDS011;3142;48.206;11.550;2024-03-08T02:31:50;22.23;;;13.20;;
6217;SDS011;3142;48.206;11.550;2024-03-08T02:34:17;18.33;;;12.07;;
6217;SDS011;3142;48.206;11.550;2024-03-08T02:36:45;19.87;;;12.23;;
6217;SDS011;3142;48.206;11.550;2024-03-08T02:39:13;20.67;;;12.27;;
6217;SDS011;3142;48.206;11.550;2024-03-08T02:41:39;17.93;;;12.37;;
6217;SDS011;3142;48.206;11.550;2024-03-08T02:44:07;18.03;;;12.40;;
6217;SDS011;3142;48.206;11.550;2024-03-08T02:46:34;19.33;;;13.10;;
6217;SDS011;3142;48.206;11.550;2024-03-08T02:49:00;20.60;;;13.03;;
6217;SDS011;3142;48.206;11.550;2024-03-08T02:51:28;19.53;;;12.67;;
6217;SDS011;3142;48.206;11.550;2024-03-08T02:53:55;18.17;;;12.60;;
6217;SDS011;3142;48.206;11.550;2024-03-08T02:56:23;17.60;;;12.73;;
6217;SDS011;3142;48.206;11.550;2024-03-08T02:58:50;19.90;;;12.90;;
6217;SDS011;3142;48.206;11.550;2024-03-08T03:01:16;20.70;;;12.43;;
6217;SDS011;3142;48.206;11.550;2024-03-08T03:03:45;19.43;;;13.50;;
6217;SDS011;3142;48.206;11.550;2024-03-08T03:06:12;18.97;;;12.53;;
6217;SDS011;3142;48.206;11.550;2024-03-08T03:08:38;19.03;;;12.63;;
6217;SDS011;3142;48.206;11.550;2024-03-08T03:11:09;20.07;;;13.27;;
6217;SDS011;3142;48.206;11.550;2024-03-08T03:13:37;20.70;;;12.90;;
6217;SDS011;3142;48.206;11.550;2024-03-08T03:16:03;21.87;;;12.57;;
6217;SDS011;3142;48.206;11.550;2024-03-08T03:18:30;19.77;;;13.10;;
6217;SDS011;3142;48.206;11.550;2024-03-08T03:20:57;21.17;;;12.67;;
6217;SDS011;3142;48.206;11.550;2024-03-08T03:23:24;22.53;;;13.83;;
6217;SDS011;3142;48.206;11.550;2024-03-08T03:25:51;21.13;;;13.67;;
6217;SDS011;3142;48.206;11.550;2024-03-08T03:28:18;20.47;;;13.50;;
6217;SDS011;3142;48.206;11.550;2024-03-08T03:30:48;22.50;;;14.10;;
6217;SDS011;3142;48.206;11.550;2024-03-08T03:33:14;20.37;;;13.47;;
6217;SDS011;3142;48.206;11.550;2024-03-08T03:35:41;20.60;;;13.40;;
6217;SDS011;3142;48.206;11.550;2024-03-08T03:38:09;22.53;;;13.77;;
6217;SDS011;3142;48.206;11.550;2024-03-08T03:40:35;21.90;;;13.83;;
6217;SDS011;3142;48.206;11.550;2024-03-08T03:43:02;21.70;;;14.47;;
6217;SDS011;3142;48.206;11.550;2024-03-08T03:45:29;20.93;;;14.17;;
6217;SDS011;3142;48.206;11.550;2024-03-08T03:48:01;21.50;;;14.10;;
6217;SDS011;3142;48.206;11.550;2024-03-08T03:50:28;20.80;;;12.90;;
6217;SDS011;3142;48.206;11.550;2024-03-08T03:52:54;21.53;;;14.30;;
6217;SDS011;3142;48.206;11.550;2024-03-08T03:55:21;23.27;;;13.77;;
6217;SDS011;3142;48.206;11.550;2024-03-08T03:57:47;21.13;;;13.30;;
6217;SDS011;3142;48.206;11.550;2024-03-08T04:00:14;21.17;;;13.70;;
6217;SDS011;3142;48.206;11.550;2024-03-08T04:02:41;22.53;;;14.57;;
6217;SDS011;3142;48.206;11.550;2024-03-08T04:05:09;21.83;;;14.40;;
6217;SDS011;3142;48.206;11.550;2024-03-08T04:07:36;22.63;;;13.93;;
6217;SDS011;3142;48.206;11.550;2024-03-08T04:10:04;26.80;;;14.80;;
6217;SDS011;3142;48.206;11.550;2024-03-08T04:12:32;24.67;;;14.27;;
6217;SDS011;3142;48.206;11.550;2024-03-08T04:14:58;21.83;;;14.23;;
6217;SDS011;3142;48.206;11.550;2024-03-08T04:17:25;22.07;;;14.67;;
6217;SDS011;3142;48.206;11.550;2024-03-08T04:19:51;22.10;;;13.53;;
6217;SDS011;3142;48.206;11.550;2024-03-08T04:22:19;23.47;;;14.87;;
6217;SDS011;3142;48.206;11.550;2024-03-08T04:24:45;22.97;;;14.70;;
6217;SDS011;3142;48.206;11.550;2024-03-08T04:27:12;21.80;;;13.87;;
6217;SDS011;3142;48.206;11.550;2024-03-08T04:29:39;22.30;;;14.60;;
6217;SDS011;3142;48.206;11.550;2024-03-08T04:32:06;23.00;;;14.73;;
6217;SDS011;3142;48.206;11.550;2024-03-08T04:34:33;25.37;;;16.27;;
6217;SDS011;3142;48.206;11.550;2024-03-08T04:37:00;26.47;;;16.00;;
6217;SDS011;3142;48.206;11.550;2024-03-08T04:39:28;24.30;;;15.10;;
6217;SDS011;3142;48.206;11.550;2024-03-08T04:41:55;26.87;;;15.90;;
6217;SDS011;3142;48.206;11.550;2024-03-08T04:44:25;26.37;;;16.37;;
6217;SDS011;3142;48.206;11.550;2024-03-08T04:46:52;24.87;;;16.17;;
6217;SDS011;3142;48.206;11.550;2024-03-08T04:49:18;23.70;;;16.20;;
6217;SDS011;3142;48.206;11.550;2024-03-08T04:51:46;27.10;;;16.00;;
6217;SDS011;3142;48.206;11.550;2024-03-08T04:54:13;26.13;;;17.27;;
6217;SDS011;3142;48.206;11.550;2024-03-08T04:56:41;26.13;;;16.03;;
6217;SDS011;3142;48.206;11.550;2024-03-08T04:59:07;28.70;;;16.67;;
6217;SDS011;3142;48.206;11.550;2024-03-08T05:01:33;28.07;;;17.20;;
6217;SDS011;3142;48.206;11.550;2024-03-08T05:04:01;25.53;;;16.57;;
6217;SDS011;3142;48.206;11.550;2024-03-08T05:06:28;28.67;;;19.23;;
6217;SDS011;3142;48.206;11.550;2024-03-08T05:08:55;25.33;;;17.50;;
6217;SDS011;3142;48.206;11.550;2024-03-08T05:11:21;26.73;;;16.40;;
6217;SDS011;3142;48.206;11.550;2024-03-08T05:13:49;29.30;;;18.13;;
6217;SDS011;3142;48.206;11.550;2024-03-08T05:16:16;28.83;;;18.40;;
6217;SDS011;3142;48.206;11.550;2024-03-08T05:18:42;28.80;;;18.03;;
6217;SDS011;3142;48.206;11.550;2024-03-08T05:21:09;32.23;;;20.20;;
6217;SDS011;3142;48.206;11.550;2024-03-08T05:23:35;29.87;;;19.87;;
6217;SDS011;3142;48.206;11.550;2024-03-08T05:26:03;27.23;;;18.10;;
6217;SDS011;3142;48.206;11.550;2024-03-08T05:28:30;32.80;;;18.93;;
6217;SDS011;3142;48.206;11.550;2024-03-08T05:30:57;30.57;;;19.27;;
6217;SDS011;3142;48.206;11.550;2024-03-08T05:33:24;32.47;;;18.57;;
6217;SDS011;3142;48.206;11.550;2024-03-08T05:35:50;29.23;;;18.90;;
6217;SDS011;3142;48.206;11.550;2024-03-08T05:38:17;29.23;;;18.57;;
6217;SDS011;3142;48.206;11.550;2024-03-08T05:40:45;30.80;;;18.47;;
6217;SDS011;3142;48.206;11.550;2024-03-08T05:43:11;31.60;;;20.30;;
6217;SDS011;3142;48.206;11.550;2024-03-08T05:45:38;34.10;;;19.87;;
6217;SDS011;3142;48.206;11.550;2024-03-08T05:48:07;33.40;;;20.53;;
6217;SDS011;3142;48.206;11.550;2024-03-08T05:50:33;31.70;;;19.30;;
6217;SDS011;3142;48.206;11.550;2024-03-08T05:53:00;32.77;;;20.87;;
6217;SDS011;3142;48.206;11.550;2024-03-08T05:55:26;51.10;;;29.47;;
6217;SDS011;3142;48.206;11.550;2024-03-08T05:57:54;35.97;;;22.10;;
6217;SDS011;3142;48.206;11.550;2024-03-08T06:00:21;36.17;;;21.00;;
6217;SDS011;3142;48.206;11.550;2024-03-08T06:02:49;48.93;;;27.10;;
6217;SDS011;3142;48.206;11.550;2024-03-08T06:05:18;40.20;;;21.93;;
6217;SDS011;3142;48.206;11.550;2024-03-08T06:07:44;36.93;;;22.07;;
6217;SDS011;3142;48.206;11.550;2024-03-08T06:10:11;35.20;;;21.07;;
6217;SDS011;3142;48.206;11.550;2024-03-08T06:12:38;39.73;;;22.10;;
6217;SDS011;3142;48.206;11.550;2024-03-08T06:15:06;38.17;;;22.13;;
6217;SDS011;3142;48.206;11.550;2024-03-08T06:17:33;37.93;;;21.63;;
6217;SDS011;3142;48.206;11.550;2024-03-08T06:20:00;36.27;;;22.27;;
6217;SDS011;3142;48.206;11.550;2024-03-08T06:22:28;39.10;;;21.67;;
6217;SDS011;3142;48.206;11.550;2024-03-08T06:24:55;38.10;;;20.93;;
6217;SDS011;3142;48.206;11.550;2024-03-08T06:27:21;42.23;;;22.67;;
6217;SDS011;3142;48.206;11.550;2024-03-08T06:29:48;42.00;;;21.87;;
6217;SDS011;3142;48.206;11.550;2024-03-08T06:32:15;37.63;;;21.00;;
6217;SDS011;3142;48.206;11.550;2024-03-08T06:34:41;37.77;;;21.40;;
6217;SDS011;3142;48.206;11.550;2024-03-08T06:37:08;39.70;;;23.50;;
6217;SDS011;3142;48.206;11.550;2024-03-08T06:39:36;41.33;;;22.83;;
6217;SDS011;3142;48.206;11.550;2024-03-08T06:42:02;39.70;;;22.73;;
6217;SDS011;3142;48.206;11.550;2024-03-08T06:44:29;38.23;;;20.90;;
6217;SDS011;3142;48.206;11.550;2024-03-08T06:46:56;35.97;;;21.27;;
6217;SDS011;3142;48.206;11.550;2024-03-08T06:49:23;40.90;;;21.83;;
6217;SDS011;3142;48.206;11.550;2024-03-08T06:51:51;39.87;;;22.50;;
6217;SDS011;3142;48.206;11.550;2024-03-08T06:54:18;35.40;;;21.77;;
6217;SDS011;3142;48.206;11.550;2024-03-08T06:56:46;43.47;;;23.20;;
6217;SDS011;3142;48.206;11.550;2024-03-08T06:59:13;40.50;;;22.17;;
6217;SDS011;3142;48.206;11.550;2024-03-08T07:01:39;42.13;;;22.37;;
6217;SDS011;3142;48.206;11.550;2024-03-08T07:04:06;38.67;;;21.93;;
6217;SDS011;3142;48.206;11.550;2024-03-08T07:06:33;38.87;;;22.57;;
6217;SDS011;3142;48.206;11.550;2024-03-08T07:08:59;39.90;;;22.20;;
6217;SDS011;3142;48.206;11.550;2024-03-08T07:11:26;36.10;;;21.83;;
6217;SDS011;3142;48.206;11.550;2024-03-08T07:13:53;39.50;;;21.67;;
6217;SDS011;3142;48.206;11.550;2024-03-08T07:16:20;36.83;;;21.80;;
6217;SDS011;3142;48.206;11.550;2024-03-08T07:18:47;39.20;;;21.53;;
6217;SDS011;3142;48.206;11.550;2024-03-08T07:21:17;36.03;;;22.03;;
6217;SDS011;3142;48.206;11.550;2024-03-08T07:23:44;37.57;;;21.53;;
6217;SDS011;3142;48.206;11.550;2024-03-08T07:26:31;39.73;;;21.40;;
6217;SDS011;3142;48.206;11.550;2024-03-08T07:28:59;38.10;;;19.93;;
6217;SDS011;3142;48.206;11.550;2024-03-08T07:31:25;39.03;;;20.27;;
6217;SDS011;3142;48.206;11.550;2024-03-08T07:34:09;35.63;;;20.53;;
6217;SDS011;3142;48.206;11.550;2024-03-08T07:36:36;39.67;;;21.57;;
6217;SDS011;3142;48.206;11.550;2024-03-08T07:39:02;34.67;;;19.47;;
6217;SDS011;3142;48.206;11.550;2024-03-08T07:41:30;33.93;;;20.33;;
6217;SDS011;3142;48.206;11.550;2024-03-08T07:44:00;33.17;;;18.50;;
6217;SDS011;3142;48.206;11.550;2024-03-08T07:46:28;33.47;;;18.37;;
6217;SDS011;3142;48.206;11.550;2024-03-08T07:48:55;35.93;;;19.67;;
6217;SDS011;3142;48.206;11.550;2024-03-08T07:51:21;37.70;;;20.47;;
6217;SDS011;3142;48.206;11.550;2024-03-08T07:53:48;35.10;;;17.30;;
6217;SDS011;3142;48.206;11.550;2024-03-08T07:56:14;30.10;;;19.23;;
6217;SDS011;3142;48.206;11.550;2024-03-08T07:58:43;32.37;;;18.33;;
6217;SDS011;3142;48.206;11.550;2024-03-08T08:01:16;38.53;;;23.90;;
6217;SDS011;3142;48.206;11.550;2024-03-08T08:03:43;33.10;;;19.50;;
6217;SDS011;3142;48.206;11.550;2024-03-08T08:06:09;37.93;;;21.17;;
6217;SDS011;3142;48.206;11.550;2024-03-08T08:08:40;36.17;;;18.83;;
6217;SDS011;3142;48.206;11.550;2024-03-08T08:11:07;33.03;;;19.53;;
6217;SDS011;3142;48.206;11.550;2024-03-08T08:13:34;31.80;;;18.70;;
6217;SDS011;3142;48.206;11.550;2024-03-08T08:16:01;34.53;;;19.77;;
6217;SDS011;3142;48.206;11.550;2024-03-08T08:18:30;30.67;;;17.77;;
6217;SDS011;3142;48.206;11.550;2024-03-08T08:20:58;29.70;;;18.73;;
6217;SDS011;3142;48.206;11.550;2024-03-08T08:23:25;32.37;;;18.23;;
6217;SDS011;3142;48.206;11.550;2024-03-08T08:25:51;27.97;;;18.43;;
6217;SDS011;3142;48.206;11.550;2024-03-08T08:28:18;30.10;;;17.83;;
6217;SDS011;3142;48.206;11.550;2024-03-08T08:30:45;48.30;;;26.77;;
6217;SDS011;3142;48.206;11.550;2024-03-08T08:33:12;38.40;;;22.17;;
6217;SDS011;3142;48.206;11.550;2024-03-08T08:35:40;28.97;;;18.20;;
6217;SDS011;3142;48.206;11.550;2024-03-08T08:38:06;29.90;;;18.73;;
6217;SDS011;3142;48.206;11.550;2024-03-08T08:40:33;31.63;;;18.50;;
6217;SDS011;3142;48.206;11.550;2024-03-08T08:43:01;28.13;;;17.73;;
6217;SDS011;3142;48.206;11.550;2024-03-08T08:45:29;27.27;;;17.47;;
6217;SDS011;3142;48.206;11.550;2024-03-08T08:47:56;28.67;;;18.10;;
6217;SDS011;3142;48.206;11.550;2024-03-08T08:50:24;29.07;;;18.87;;
6217;SDS011;3142;48.206;11.550;2024-03-08T08:52:53;25.57;;;16.63;;
6217;SDS011;3142;48.206;11.550;2024-03-08T08:55:19;23.57;;;16.63;;
6217;SDS011;3142;48.206;11.550;2024-03-08T08:57:50;29.13;;;18.93;;
6217;SDS011;3142;48.206;11.550;2024-03-08T09:00:17;28.90;;;16.33;;
6217;SDS011;3142;48.206;11.550;2024-03-08T09:02:45;25.67;;;17.17;;
6217;SDS011;3142;48.206;11.550;2024-03-08T09:05:12;31.50;;;18.23;;
6217;SDS011;3142;48.206;11.550;2024-03-08T09:07:41;24.47;;;17.30;;
6217;SDS011;3142;48.206;11.550;2024-03-08T09:10:10;25.87;;;17.50;;
6217;SDS011;3142;48.206;11.550;2024-03-08T09:12:39;27.07;;;16.67;;
6217;SDS011;3142;48.206;11.550;2024-03-08T09:15:06;29.90;;;17.57;;
6217;SDS011;3142;48.206;11.550;2024-03-08T09:17:35;26.37;;;16.93;;
6217;SDS011;3142;48.206;11.550;2024-03-08T09:20:05;27.43;;;17.77;;
6217;SDS011;3142;48.206;11.550;2024-03-08T09:22:32;26.30;;;18.37;;
6217;SDS011;3142;48.206;11.550;2024-03-08T09:24:59;31.23;;;20.27;;
6217;SDS011;3142;48.206;11.550;2024-03-08T09:27:26;28.30;;;18.70;;
6217;SDS011;3142;48.206;11.550;2024-03-08T09:29:53;24.67;;;16.90;;
6217;SDS011;3142;48.206;11.550;2024-03-08T09:32:19;27.40;;;18.10;;
6217;SDS011;3142;48.206;11.550;2024-03-08T09:34:47;28.53;;;19.60;;
6217;SDS011;3142;48.206;11.550;2024-03-08T09:37:15;28.83;;;18.77;;
6217;SDS011;3142;48.206;11.550;2024-03-08T09:39:42;26.97;;;18.83;;
6217;SDS011;3142;48.206;11.550;2024-03-08T09:42:09;26.07;;;19.03;;
6217;SDS011;3142;48.206;11.550;2024-03-08T09:44:41;27.87;;;18.47;;
6217;SDS011;3142;48.206;11.550;2024-03-08T09:47:10;26.83;;;18.57;;
6217;SDS011;3142;48.206;11.550;2024-03-08T09:49:39;25.13;;;17.80;;
6217;SDS011;3142;48.206;11.550;2024-03-08T09:52:06;24.83;;;18.00;;
6217;SDS011;3142;48.206;11.550;2024-03-08T09:54:33;28.13;;;19.27;;
6217;SDS011;3142;48.206;11.550;2024-03-08T09:57:00;27.50;;;18.10;;
6217;SDS011;3142;48.206;11.550;2024-03-08T09:59:28;28.87;;;17.43;;
6217;SDS011;3142;48.206;11.550;2024-03-08T10:02:13;21.33;;;15.60;;
6217;SDS011;3142;48.206;11.550;2024-03-08T10:04:41;22.53;;;16.40;;
6217;SDS011;3142;48.206;11.550;2024-03-08T10:07:08;25.80;;;16.60;;
6217;SDS011;3142;48.206;11.550;2024-03-08T10:09:34;23.83;;;16.13;;
6217;SDS011;3142;48.206;11.550;2024-03-08T10:12:01;21.43;;;16.10;;
6217;SDS011;3142;48.206;11.550;2024-03-08T10:14:28;24.87;;;18.03;;
6217;SDS011;3142;48.206;11.550;2024-03-08T10:16:54;23.37;;;16.27;;
6217;SDS011;3142;48.206;11.550;2024-03-08T10:19:26;21.53;;;16.20;;
6217;SDS011;3142;48.206;11.550;2024-03-08T10:21:52;22.40;;;16.70;;
6217;SDS011;3142;48.206;11.550;2024-03-08T10:24:22;22.70;;;15.90;;
6217;SDS011;3142;48.206;11.550;2024-03-08T10:26:51;21.47;;;15.83;;
6217;SDS011;3142;48.206;11.550;2024-03-08T10:29:18;23.37;;;17.00;;
6217;SDS011;3142;48.206;11.550;2024-03-08T10:31:45;22.40;;;15.77;;
6217;SDS011;3142;48.206;11.550;2024-03-08T10:34:11;20.83;;;15.87;;
6217;SDS011;3142;48.206;11.550;2024-03-08T10:36:40;25.37;;;16.60;;
6217;SDS011;3142;48.206;11.550;2024-03-08T10:39:07;19.63;;;15.47;;
6217;SDS011;3142;48.206;11.550;2024-03-08T10:41:44;21.07;;;15.17;;
6217;SDS011;3142;48.206;11.550;2024-03-08T10:44:18;20.27;;;14.93;;
6217;SDS011;3142;48.206;11.550;2024-03-08T10:47:00;19.50;;;14.17;;
6217;SDS011;3142;48.206;11.550;2024-03-08T10:49:30;21.23;;;15.53;;
6217;SDS011;3142;48.206;11.550;2024-03-08T10:52:01;20.97;;;15.43;;
6217;SDS011;3142;48.206;11.550;2024-03-08T10:54:30;18.03;;;13.97;;
6217;SDS011;3142;48.206;11.550;2024-03-08T10:56:58;18.90;;;14.63;;
6217;SDS011;3142;48.206;11.550;2024-03-08T10:59:26;20.10;;;14.50;;
6217;SDS011;3142;48.206;11.550;2024-03-08T11:01:53;20.43;;;14.67;;
6217;SDS011;3142;48.206;11.550;2024-03-08T11:04:20;20.30;;;13.93;;
6217;SDS011;3142;48.206;11.550;2024-03-08T11:06:47;21.37;;;14.80;;
6217;SDS011;3142;48.206;11.550;2024-03-08T11:09:29;19.97;;;14.30;;
6217;SDS011;3142;48.206;11.550;2024-03-08T11:14:59;19.10;;;13.87;;
6217;SDS011;3142;48.206;11.550;2024-03-08T11:17:44;24.27;;;16.63;;
6217;SDS011;3142;48.206;11.550;2024-03-08T11:20:13;19.77;;;13.97;;
6217;SDS011;3142;48.206;11.550;2024-03-08T11:22:42;17.60;;;13.07;;
6217;SDS011;3142;48.206;11.550;2024-03-08T11:28:13;19.60;;;12.57;;
6217;SDS011;3142;48.206;11.550;2024-03-08T11:30:43;18.60;;;13.80;;
6217;SDS011;3142;48.206;11.550;2024-03-08T11:33:12;21.40;;;13.40;;
6217;SDS011;3142;48.206;11.550;2024-03-08T11:35:39;17.27;;;12.43;;
6217;SDS011;3142;48.206;11.550;2024-03-08T11:38:07;17.27;;;13.30;;
6217;SDS011;3142;48.206;11.550;2024-03-08T11:40:35;17.63;;;13.20;;
6217;SDS011;3142;48.206;11.550;2024-03-08T11:43:02;16.37;;;12.30;;
6217;SDS011;3142;48.206;11.550;2024-03-08T11:45:32;16.60;;;12.80;;
6217;SDS011;3142;48.206;11.550;2024-03-08T11:48:01;17.80;;;12.40;;
6217;SDS011;3142;48.206;11.550;2024-03-08T11:50:28;16.33;;;12.40;;
6217;SDS011;3142;48.206;11.550;2024-03-08T11:52:59;21.93;;;14.13;;
6217;SDS011;3142;48.206;11.550;2024-03-08T11:55:26;21.20;;;15.23;;
6217;SDS011;3142;48.206;11.550;2024-03-08T11:58:00;22.03;;;13.93;;
6217;SDS011;3142;48.206;11.550;2024-03-08T12:00:30;18.83;;;13.80;;
6217;SDS011;3142;48.206;11.550;2024-03-08T12:03:03;18.03;;;13.30;;
6217;SDS011;3142;48.206;11.550;2024-03-08T12:05:30;28.80;;;18.70;;
6217;SDS011;3142;48.206;11.550;2024-03-08T12:07:58;24.23;;;16.73;;
6217;SDS011;3142;48.206;11.550;2024-03-08T12:10:25;19.30;;;14.67;;
6217;SDS011;3142;48.206;11.550;2024-03-08T12:12:53;16.83;;;11.93;;
6217;SDS011;3142;48.206;11.550;2024-03-08T12:15:23;18.90;;;14.40;;
6217;SDS011;3142;48.206;11.550;2024-03-08T12:17:50;18.43;;;14.03;;
6217;SDS011;3142;48.206;11.550;2024-03-08T12:20:18;15.87;;;12.90;;
6217;SDS011;3142;48.206;11.550;2024-03-08T12:22:46;19.07;;;13.73;;
6217;SDS011;3142;48.206;11.550;2024-03-08T12:25:14;18.13;;;13.67;;
6217;SDS011;3142;48.206;11.550;2024-03-08T12:27:41;19.40;;;14.17;;
6217;SDS011;3142;48.206;11.550;2024-03-08T12:30:15;18.73;;;13.50;;
6217;SDS011;3142;48.206;11.550;2024-03-08T12:32:50;17.17;;;12.57;;
6217;SDS011;3142;48.206;11.550;2024-03-08T12:35:19;18.90;;;13.20;;
6217;SDS011;3142;48.206;11.550;2024-03-08T12:37:47;16.73;;;12.70;;
6217;SDS011;3142;48.206;11.550;2024-03-08T12:40:16;18.13;;;12.13;;
6217;SDS011;3142;48.206;11.550;2024-03-08T12:42:43;18.53;;;13.43;;
6217;SDS011;3142;48.206;11.550;2024-03-08T12:45:12;19.27;;;12.57;;
6217;SDS011;3142;48.206;11.550;2024-03-08T12:47:39;16.80;;;12.67;;
6217;SDS011;3142;48.206;11.550;2024-03-08T12:50:08;17.23;;;12.73;;
6217;SDS011;3142;48.206;11.550;2024-03-08T12:52:36;17.23;;;12.23;;
6217;SDS011;3142;48.206;11.550;2024-03-08T12:55:02;16.93;;;12.00;;
6217;SDS011;3142;48.206;11.550;2024-03-08T12:57:31;17.23;;;11.57;;
6217;SDS011;3142;48.206;11.550;2024-03-08T12:59:59;16.40;;;11.13;;
6217;SDS011;3142;48.206;11.550;2024-03-08T13:02:27;15.43;;;11.80;;
6217;SDS011;3142;48.206;11.550;2024-03-08T13:04:53;32.83;;;21.20;;
6217;SDS011;3142;48.206;11.550;2024-03-08T13:07:24;31.03;;;20.37;;
6217;SDS011;3142;48.206;11.550;2024-03-08T13:09:51;17.30;;;11.03;;
6217;SDS011;3142;48.206;11.550;2024-03-08T13:12:19;17.63;;;12.03;;
6217;SDS011;3142;48.206;11.550;2024-03-08T13:14:46;15.70;;;11.57;;
6217;SDS011;3142;48.206;11.550;2024-03-08T13:17:12;14.67;;;10.63;;
6217;SDS011;3142;48.206;11.550;2024-03-08T13:19:39;15.30;;;11.50;;
6217;SDS011;3142;48.206;11.550;2024-03-08T13:22:07;15.40;;;11.97;;
6217;SDS011;3142;48.206;11.550;2024-03-08T13:24:38;16.97;;;12.67;;
6217;SDS011;3142;48.206;11.550;2024-03-08T13:27:05;19.27;;;13.27;;
6217;SDS011;3142;48.206;11.550;2024-03-08T13:29:41;19.47;;;13.63;;
6217;SDS011;3142;48.206;11.550;2024-03-08T13:32:08;15.73;;;12.10;;
6217;SDS011;3142;48.206;11.550;2024-03-08T13:34:36;15.33;;;12.03;;
6217;SDS011;3142;48.206;11.550;2024-03-08T13:37:03;19.83;;;13.60;;
6217;SDS011;3142;48.206;11.550;2024-03-08T13:39:31;19.23;;;14.50;;
6217;SDS011;3142;48.206;11.550;2024-03-08T13:42:07;16.20;;;12.67;;
6217;SDS011;3142;48.206;11.550;2024-03-08T13:44:34;17.00;;;12.07;;
6217;SDS011;3142;48.206;11.550;2024-03-08T13:47:01;17.40;;;11.87;;
6217;SDS011;3142;48.206;11.550;2024-03-08T13:49:29;15.97;;;11.90;;
6217;SDS011;3142;48.206;11.550;2024-03-08T13:51:56;17.23;;;12.53;;
6217;SDS011;3142;48.206;11.550;2024-03-08T13:54:23;17.87;;;12.33;;
6217;SDS011;3142;48.206;11.550;2024-03-08T13:56:52;16.37;;;12.17;;
6217;SDS011;3142;48.206;11.550;2024-03-08T13:59:21;16.87;;;12.13;;
6217;SDS011;3142;48.206;11.550;2024-03-08T14:01:48;15.77;;;11.97;;
6217;SDS011;3142;48.206;11.550;2024-03-08T14:04:15;16.93;;;13.30;;
6217;SDS011;3142;48.206;11.550;2024-03-08T14:06:42;17.53;;;12.17;;
6217;SDS011;3142;48.206;11.550;2024-03-08T14:09:09;15.77;;;12.07;;
6217;SDS011;3142;48.206;11.550;2024-03-08T14:11:41;20.77;;;15.77;;
6217;SDS011;3142;48.206;11.550;2024-03-08T14:14:08;20.17;;;14.70;;
6217;SDS011;3142;48.206;11.550;2024-03-08T14:16:36;18.10;;;12.70;;
6217;SDS011;3142;48.206;11.550;2024-03-08T14:19:02;14.93;;;10.83;;
6217;SDS011;3142;48.206;11.550;2024-03-08T14:21:30;15.77;;;11.50;;
6217;SDS011;3142;48.206;11.550;2024-03-08T14:23:57;16.50;;;11.03;;
6217;SDS011;3142;48.206;11.550;2024-03-08T14:26:23;17.17;;;11.83;;
6217;SDS011;3142;48.206;11.550;2024-03-08T14:28:51;15.30;;;11.80;;
6217;SDS011;3142;48.206;11.550;2024-03-08T14:31:19;15.03;;;11.27;;
6217;SDS011;3142;48.206;11.550;2024-03-08T14:33:50;15.27;;;10.73;;
6217;SDS011;3142;48.206;11.550;2024-03-08T14:36:17;17.73;;;12.10;;
6217;SDS011;3142;48.206;11.550;2024-03-08T14:38:44;15.83;;;11.37;;
6217;SDS011;3142;48.206;11.550;2024-03-08T14:41:12;16.93;;;11.40;;
6217;SDS011;3142;48.206;11.550;2024-03-08T14:43:38;15.87;;;11.87;;